sensor_id;sensor_type;location;lat;lon;timestamp;pressure;altitude;pressure_sealevel;temperature;humidity
61119;BME280;51448;51.660;5.824;2022-12-07T00:01:38;101675.44;;;4.02;100.00
61119;BME280;51448;51.660;5.824;2022-12-07T00:04:08;101677.16;;;4.01;100.00
61119;BME280;51448;51.660;5.824;2022-12-07T00:06:41;101680.63;;;4.00;100.00
61119;BME280;51448;51.660;5.824;2022-12-07T00:09:13;101671.06;;;3.99;100.00
61119;BME280;51448;51.660;5.824;2022-12-07T00:11:43;101671.91;;;3.97;100.00
61119;BME280;51448;51.660;5.824;2022-12-07T00:14:13;101668.38;;;3.93;100.00
61119;BME280;51448;51.660;5.824;2022-12-07T00:16:43;101670.97;;;3.90;100.00
61119;BME280;51448;51.660;5.824;2022-12-07T00:19:13;101662.25;;;3.88;100.00
61119;BME280;51448;51.660;5.824;2022-12-07T00:21:41;101656.13;;;3.85;100.00
61119;BME280;51448;51.660;5.824;2022-12-07T00:24:10;101660.44;;;3.82;100.00
61119;BME280;51448;51.660;5.824;2022-12-07T00:26:41;101655.22;;;3.81;100.00
61119;BME280;51448;51.660;5.824;2022-12-07T00:29:17;101654.34;;;3.80;100.00
61119;BME280;51448;51.660;5.824;2022-12-07T00:31:46;101654.28;;;3.76;100.00
61119;BME280;51448;51.660;5.824;2022-12-07T00:34:17;101654.25;;;3.74;100.00
61119;BME280;51448;51.660;5.824;2022-12-07T00:36:47;101649.03;;;3.71;100.00
61119;BME280;51448;51.660;5.824;2022-12-07T00:39:15;101646.44;;;3.71;100.00
61119;BME280;51448;51.660;5.824;2022-12-07T00:41:43;101655.94;;;3.71;100.00
61119;BME280;51448;51.660;5.824;2022-12-07T00:44:11;101640.31;;;3.68;100.00
61119;BME280;51448;51.660;5.824;2022-12-07T00:46:38;101652.44;;;3.67;100.00
61119;BME280;51448;51.660;5.824;2022-12-07T00:49:06;101655.88;;;3.66;100.00
61119;BME280;51448;51.660;5.824;2022-12-07T00:51:33;101655.03;;;3.66;100.00
61119;BME280;51448;51.660;5.824;2022-12-07T00:54:01;101656.72;;;3.63;100.00
61119;BME280;51448;51.660;5.824;2022-12-07T00:56:29;101648.06;;;3.63;100.00
61119;BME280;51448;51.660;5.824;2022-12-07T00:58:59;101646.31;;;3.63;100.00
61119;BME280;51448;51.660;5.824;2022-12-07T01:01:31;101642.84;;;3.63;100.00
61119;BME280;51448;51.660;5.824;2022-12-07T01:04:01;101645.44;;;3.63;100.00
61119;BME280;51448;51.660;5.824;2022-12-07T01:06:29;101646.31;;;3.63;100.00
61119;BME280;51448;51.660;5.824;2022-12-07T01:08:58;101643.75;;;3.65;100.00
61119;BME280;51448;51.660;5.824;2022-12-07T01:11:28;101644.63;;;3.66;100.00
61119;BME280;51448;51.660;5.824;2022-12-07T01:13:58;101641.97;;;3.64;100.00
61119;BME280;51448;51.660;5.824;2022-12-07T01:16:30;101639.34;;;3.62;100.00
61119;BME280;51448;51.660;5.824;2022-12-07T01:18:59;101647.16;;;3.61;100.00
61119;BME280;51448;51.660;5.824;2022-12-07T01:21:30;101651.47;;;3.60;100.00
61119;BME280;51448;51.660;5.824;2022-12-07T01:24:05;101653.16;;;3.58;100.00
61119;BME280;51448;51.660;5.824;2022-12-07T01:26:34;101648.78;;;3.54;100.00
61119;BME280;51448;51.660;5.824;2022-12-07T01:29:02;101649.66;;;3.53;100.00
61119;BME280;51448;51.660;5.824;2022-12-07T01:31:30;101650.50;;;3.51;100.00
61119;BME280;51448;51.660;5.824;2022-12-07T01:33:59;101653.03;;;3.48;100.00
61119;BME280;51448;51.660;5.824;2022-12-07T01:36:31;101648.63;;;3.43;100.00
61119;BME280;51448;51.660;5.824;2022-12-07T01:39:03;101652.91;;;3.40;100.00
61119;BME280;51448;51.660;5.824;2022-12-07T01:41:36;101655.50;;;3.38;100.00
61119;BME280;51448;51.660;5.824;2022-12-07T01:44:26;101658.09;;;3.37;100.00
61119;BME280;51448;51.660;5.824;2022-12-07T01:47:04;101653.72;;;3.34;100.00
61119;BME280;51448;51.660;5.824;2022-12-07T01:49:37;101644.13;;;3.32;100.00
61119;BME280;51448;51.660;5.824;2022-12-07T01:52:24;101642.38;;;3.31;100.00
61119;BME280;51448;51.660;5.824;2022-12-07T01:55:01;101643.22;;;3.28;100.00
61119;BME280;51448;51.660;5.824;2022-12-07T01:57:34;101647.53;;;3.28;100.00
61119;BME280;51448;51.660;5.824;2022-12-07T02:00:08;101645.78;;;3.27;100.00
61119;BME280;51448;51.660;5.824;2022-12-07T02:05:18;101647.44;;;3.21;100.00
61119;BME280;51448;51.660;5.824;2022-12-07T02:07:47;101647.44;;;3.21;100.00
61119;BME280;51448;51.660;5.824;2022-12-07T02:10:19;101638.75;;;3.18;100.00
61119;BME280;51448;51.660;5.824;2022-12-07T02:12:52;101636.09;;;3.16;100.00
61119;BME280;51448;51.660;5.824;2022-12-07T02:21:38;101638.56;;;3.07;100.00
61119;BME280;51448;51.660;5.824;2022-12-07T02:28:11;101645.41;;;3.02;100.00
61119;BME280;51448;51.660;5.824;2022-12-07T02:30:48;101638.44;;;2.98;100.00
61119;BME280;51448;51.660;5.824;2022-12-07T02:33:26;101637.56;;;2.97;100.00
61119;BME280;51448;51.660;5.824;2022-12-07T02:36:02;101644.47;;;2.97;100.00
61119;BME280;51448;51.660;5.824;2022-12-07T02:38:42;101642.72;;;2.96;100.00
61119;BME280;51448;51.660;5.824;2022-12-07T02:41:22;101639.25;;;2.95;100.00
61119;BME280;51448;51.660;5.824;2022-12-07T02:44:17;101637.47;;;2.93;100.00
61119;BME280;51448;51.660;5.824;2022-12-07T02:46:52;101629.66;;;2.93;100.00
61119;BME280;51448;51.660;5.824;2022-12-07T02:49:24;101633.97;;;2.91;100.00
61119;BME280;51448;51.660;5.824;2022-12-07T02:51:55;101628.75;;;2.89;100.00
61119;BME280;51448;51.660;5.824;2022-12-07T02:54:22;101626.09;;;2.86;100.00
61119;BME280;51448;51.660;5.824;2022-12-07T02:57:19;101627.88;;;2.87;100.00
61119;BME280;51448;51.660;5.824;2022-12-07T03:00:11;101634.72;;;2.84;100.00
61119;BME280;51448;51.660;5.824;2022-12-07T03:02:53;101637.28;;;2.82;100.00
61119;BME280;51448;51.660;5.824;2022-12-07T03:08:10;101636.34;;;2.78;100.00
61119;BME280;51448;51.660;5.824;2022-12-07T03:11:08;101642.44;;;2.79;100.00
61119;BME280;51448;51.660;5.824;2022-12-07T03:13:59;101639.81;;;2.77;100.00
61119;BME280;51448;51.660;5.824;2022-12-07T03:16:41;101635.50;;;2.78;100.00
61119;BME280;51448;51.660;5.824;2022-12-07T03:19:18;101645.06;;;2.80;100.00
61119;BME280;51448;51.660;5.824;2022-12-07T03:22:01;101643.38;;;2.84;100.00
61119;BME280;51448;51.660;5.824;2022-12-07T03:24:57;101638.19;;;2.84;100.00
61119;BME280;51448;51.660;5.824;2022-12-07T03:27:35;101637.28;;;2.82;100.00
61119;BME280;51448;51.660;5.824;2022-12-07T03:30:19;101633.81;;;2.81;100.00
61119;BME280;51448;51.660;5.824;2022-12-07T03:35:49;101632.06;;;2.80;100.00
61119;BME280;51448;51.660;5.824;2022-12-07T03:38:24;101641.59;;;2.80;100.00
61119;BME280;51448;51.660;5.824;2022-12-07T03:41:36;101630.34;;;2.81;100.00
61119;BME280;51448;51.660;5.824;2022-12-07T03:44:12;101622.53;;;2.79;100.00
61119;BME280;51448;51.660;5.824;2022-12-07T03:47:09;101624.25;;;2.80;100.00
61119;BME280;51448;51.660;5.824;2022-12-07T03:49:51;101621.66;;;2.79;100.00
61119;BME280;51448;51.660;5.824;2022-12-07T03:52:53;101623.44;;;2.81;100.00
61119;BME280;51448;51.660;5.824;2022-12-07T03:55:35;101625.16;;;2.82;100.00
61119;BME280;51448;51.660;5.824;2022-12-07T03:58:10;101619.13;;;2.84;100.00
61119;BME280;51448;51.660;5.824;2022-12-07T04:00:43;101625.22;;;2.86;100.00
61119;BME280;51448;51.660;5.824;2022-12-07T04:03:11;101632.22;;;2.90;100.00
61119;BME280;51448;51.660;5.824;2022-12-07T04:05:39;101634.00;;;2.92;100.00
61119;BME280;51448;51.660;5.824;2022-12-07T04:08:07;101631.44;;;2.94;100.00
61119;BME280;51448;51.660;5.824;2022-12-07T04:10:36;101631.53;;;3.00;100.00
61119;BME280;51448;51.660;5.824;2022-12-07T04:13:03;101622.03;;;3.02;100.00
61119;BME280;51448;51.660;5.824;2022-12-07T04:15:31;101630.75;;;3.06;100.00
61119;BME280;51448;51.660;5.824;2022-12-07T04:17:59;101628.19;;;3.09;100.00
61119;BME280;51448;51.660;5.824;2022-12-07T04:20:26;101624.75;;;3.11;100.00
61119;BME280;51448;51.660;5.824;2022-12-07T04:22:54;101630.00;;;3.14;100.00
61119;BME280;51448;51.660;5.824;2022-12-07T04:25:21;101629.19;;;3.17;100.00
61119;BME280;51448;51.660;5.824;2022-12-07T04:27:49;101627.47;;;3.19;100.00
61119;BME280;51448;51.660;5.824;2022-12-07T04:30:16;101625.78;;;3.21;100.00
61119;BME280;51448;51.660;5.824;2022-12-07T04:32:44;101637.94;;;3.22;100.00
61119;BME280;51448;51.660;5.824;2022-12-07T04:35:11;101628.34;;;3.19;100.00
61119;BME280;51448;51.660;5.824;2022-12-07T04:37:39;101630.97;;;3.21;100.00
61119;BME280;51448;51.660;5.824;2022-12-07T04:40:08;101634.47;;;3.23;100.00
61119;BME280;51448;51.660;5.824;2022-12-07T04:42:38;101624.94;;;3.23;100.00
61119;BME280;51448;51.660;5.824;2022-12-07T04:45:06;101612.03;;;3.28;100.00
61119;BME280;51448;51.660;5.824;2022-12-07T04:47:34;101604.22;;;3.30;100.00
61119;BME280;51448;51.660;5.824;2022-12-07T04:50:03;101604.28;;;3.33;100.00
61119;BME280;51448;51.660;5.824;2022-12-07T04:52:31;101604.28;;;3.33;100.00
61119;BME280;51448;51.660;5.824;2022-12-07T04:54:59;101606.91;;;3.34;100.00
61119;BME280;51448;51.660;5.824;2022-12-07T04:57:26;101601.72;;;3.34;100.00
61119;BME280;51448;51.660;5.824;2022-12-07T04:59:54;101602.56;;;3.35;100.00
61119;BME280;51448;51.660;5.824;2022-12-07T05:02:21;101606.88;;;3.33;100.00
61119;BME280;51448;51.660;5.824;2022-12-07T05:04:49;101598.19;;;3.31;100.00
61119;BME280;51448;51.660;5.824;2022-12-07T05:07:16;101597.28;;;3.29;100.00
61119;BME280;51448;51.660;5.824;2022-12-07T05:09:44;101605.94;;;3.28;100.00
61119;BME280;51448;51.660;5.824;2022-12-07T05:12:11;101604.13;;;3.23;100.00
61119;BME280;51448;51.660;5.824;2022-12-07T05:14:38;101610.22;;;3.22;100.00
61119;BME280;51448;51.660;5.824;2022-12-07T05:17:06;101604.06;;;3.19;100.00
61119;BME280;51448;51.660;5.824;2022-12-07T05:19:33;101607.53;;;3.16;100.00
61119;BME280;51448;51.660;5.824;2022-12-07T05:22:01;101608.34;;;3.14;100.00
61119;BME280;51448;51.660;5.824;2022-12-07T05:24:28;101610.91;;;3.12;100.00
61119;BME280;51448;51.660;5.824;2022-12-07T05:26:55;101612.66;;;3.13;100.00
61119;BME280;51448;51.660;5.824;2022-12-07T05:29:23;101606.56;;;3.11;100.00
61119;BME280;51448;51.660;5.824;2022-12-07T05:31:50;101612.66;;;3.13;100.00
61119;BME280;51448;51.660;5.824;2022-12-07T05:34:18;101614.41;;;3.14;100.00
61119;BME280;51448;51.660;5.824;2022-12-07T05:36:45;101611.81;;;3.14;100.00
61119;BME280;51448;51.660;5.824;2022-12-07T05:39:13;101604.00;;;3.13;100.00
61119;BME280;51448;51.660;5.824;2022-12-07T05:41:41;101603.13;;;3.12;100.00
61119;BME280;51448;51.660;5.824;2022-12-07T05:44:27;101602.22;;;3.10;100.00
61119;BME280;51448;51.660;5.824;2022-12-07T05:46:54;101607.44;;;3.10;100.00
61119;BME280;51448;51.660;5.824;2022-12-07T05:49:22;101607.44;;;3.10;100.00
61119;BME280;51448;51.660;5.824;2022-12-07T05:51:49;101599.59;;;3.09;100.00
61119;BME280;51448;51.660;5.824;2022-12-07T05:54:17;101598.69;;;3.07;100.00
61119;BME280;51448;51.660;5.824;2022-12-07T05:56:45;101596.97;;;3.06;100.00
61119;BME280;51448;51.660;5.824;2022-12-07T05:59:12;101602.13;;;3.04;100.00
61119;BME280;51448;51.660;5.824;2022-12-07T06:02:00;101597.78;;;3.03;100.00
61119;BME280;51448;51.660;5.824;2022-12-07T06:04:32;101602.94;;;3.00;100.00
61119;BME280;51448;51.660;5.824;2022-12-07T06:07:03;101597.69;;;2.97;100.00
61119;BME280;51448;51.660;5.824;2022-12-07T06:09:32;101590.75;;;2.96;100.00
61119;BME280;51448;51.660;5.824;2022-12-07T06:12:02;101588.09;;;2.93;100.00
61119;BME280;51448;51.660;5.824;2022-12-07T06:14:49;101589.78;;;2.91;100.00
61119;BME280;51448;51.660;5.824;2022-12-07T06:17:16;101594.97;;;2.91;100.00
61119;BME280;51448;51.660;5.824;2022-12-07T06:19:44;101596.75;;;2.92;100.00
61119;BME280;51448;51.660;5.824;2022-12-07T06:22:12;101600.25;;;2.94;100.00
61119;BME280;51448;51.660;5.824;2022-12-07T06:24:40;101595.91;;;2.94;100.00
61119;BME280;51448;51.660;5.824;2022-12-07T06:27:08;101600.31;;;2.98;100.00
61119;BME280;51448;51.660;5.824;2022-12-07T06:29:36;101600.31;;;2.98;100.00
61119;BME280;51448;51.660;5.824;2022-12-07T06:32:04;101601.22;;;3.00;100.00
61119;BME280;51448;51.660;5.824;2022-12-07T06:34:32;101598.63;;;3.02;100.00
61119;BME280;51448;51.660;5.824;2022-12-07T06:36:59;101593.44;;;3.02;100.00
61119;BME280;51448;51.660;5.824;2022-12-07T06:39:28;101600.38;;;3.03;100.00
61119;BME280;51448;51.660;5.824;2022-12-07T06:41:56;101601.25;;;3.02;100.00
61119;BME280;51448;51.660;5.824;2022-12-07T06:44:24;101602.97;;;3.01;100.00
61119;BME280;51448;51.660;5.824;2022-12-07T06:46:52;101605.53;;;3.00;100.00
61119;BME280;51448;51.660;5.824;2022-12-07T06:49:40;101600.28;;;2.97;100.00
61119;BME280;51448;51.660;5.824;2022-12-07T06:52:07;101607.19;;;2.95;100.00
61119;BME280;51448;51.660;5.824;2022-12-07T06:54:35;101603.69;;;2.93;100.00
61119;BME280;51448;51.660;5.824;2022-12-07T06:57:02;101603.69;;;2.93;100.00
61119;BME280;51448;51.660;5.824;2022-12-07T06:59:30;101605.41;;;2.92;100.00
61119;BME280;51448;51.660;5.824;2022-12-07T07:01:57;101603.66;;;2.90;100.00
61119;BME280;51448;51.660;5.824;2022-12-07T07:04:24;101601.88;;;2.89;100.00
61119;BME280;51448;51.660;5.824;2022-12-07T07:06:52;101605.34;;;2.88;100.00
61119;BME280;51448;51.660;5.824;2022-12-07T07:09:26;101605.31;;;2.86;100.00
61119;BME280;51448;51.660;5.824;2022-12-07T07:11:54;101600.97;;;2.85;100.00
61119;BME280;51448;51.660;5.824;2022-12-07T07:14:21;101603.53;;;2.84;100.00
61119;BME280;51448;51.660;5.824;2022-12-07T07:16:49;101611.31;;;2.82;100.00
61119;BME280;51448;51.660;5.824;2022-12-07T07:19:16;101606.06;;;2.79;100.00
61119;BME280;51448;51.660;5.824;2022-12-07T07:21:44;101614.69;;;2.76;100.00
61119;BME280;51448;51.660;5.824;2022-12-07T07:24:11;101606.84;;;2.73;100.00
61119;BME280;51448;51.660;5.824;2022-12-07T07:26:39;101614.59;;;2.72;100.00
61119;BME280;51448;51.660;5.824;2022-12-07T07:29:06;101617.16;;;2.70;100.00
61119;BME280;51448;51.660;5.824;2022-12-07T07:31:34;101618.03;;;2.69;100.00
61119;BME280;51448;51.660;5.824;2022-12-07T07:34:03;101613.66;;;2.68;100.00
61119;BME280;51448;51.660;5.824;2022-12-07T07:36:31;101620.56;;;2.66;100.00
61119;BME280;51448;51.660;5.824;2022-12-07T07:38:58;101621.47;;;2.67;100.00
61119;BME280;51448;51.660;5.824;2022-12-07T07:41:25;101620.56;;;2.65;100.00
61119;BME280;51448;51.660;5.824;2022-12-07T07:43:53;101613.63;;;2.65;100.00
61119;BME280;51448;51.660;5.824;2022-12-07T07:46:20;101623.16;;;2.65;100.00
61119;BME280;51448;51.660;5.824;2022-12-07T07:48:48;101617.06;;;2.63;100.00
61119;BME280;51448;51.660;5.824;2022-12-07T07:51:15;101617.03;;;2.61;100.00
61119;BME280;51448;51.660;5.824;2022-12-07T07:53:43;101627.41;;;2.61;100.00
61119;BME280;51448;51.660;5.824;2022-12-07T07:56:10;101617.03;;;2.61;100.00
61119;BME280;51448;51.660;5.824;2022-12-07T07:58:38;101624.81;;;2.61;100.00
61119;BME280;51448;51.660;5.824;2022-12-07T08:01:06;101630.00;;;2.61;100.00
61119;BME280;51448;51.660;5.824;2022-12-07T08:03:35;101623.09;;;2.61;100.00
61119;BME280;51448;51.660;5.824;2022-12-07T08:06:03;101624.84;;;2.63;100.00
61119;BME280;51448;51.660;5.824;2022-12-07T08:08:31;101615.38;;;2.65;100.00
61119;BME280;51448;51.660;5.824;2022-12-07T08:10:59;101621.47;;;2.67;100.00
61119;BME280;51448;51.660;5.824;2022-12-07T08:13:28;101624.88;;;2.66;100.00
61119;BME280;51448;51.660;5.824;2022-12-07T08:15:58;101613.66;;;2.67;100.00
61119;BME280;51448;51.660;5.824;2022-12-07T08:18:30;101617.13;;;2.67;100.00
61119;BME280;51448;51.660;5.824;2022-12-07T08:21:00;101608.47;;;2.68;100.00
61119;BME280;51448;51.660;5.824;2022-12-07T08:23:28;101621.50;;;2.70;100.00
61119;BME280;51448;51.660;5.824;2022-12-07T08:26:10;101623.22;;;2.69;100.00
61119;BME280;51448;51.660;5.824;2022-12-07T08:28:41;101624.09;;;2.70;100.00
61119;BME280;51448;51.660;5.824;2022-12-07T08:31:14;101619.81;;;2.72;100.00
61119;BME280;51448;51.660;5.824;2022-12-07T08:33:46;101630.22;;;2.73;100.00
61119;BME280;51448;51.660;5.824;2022-12-07T08:36:15;101638.06;;;2.75;100.00
61119;BME280;51448;51.660;5.824;2022-12-07T08:38:43;101637.22;;;2.77;100.00
61119;BME280;51448;51.660;5.824;2022-12-07T08:41:32;101634.63;;;2.77;100.00
61119;BME280;51448;51.660;5.824;2022-12-07T08:43:59;101642.44;;;2.80;100.00
61119;BME280;51448;51.660;5.824;2022-12-07T08:47:01;101639.97;;;2.85;100.00
61119;BME280;51448;51.660;5.824;2022-12-07T08:49:41;101631.31;;;2.88;100.00
61119;BME280;51448;51.660;5.824;2022-12-07T08:52:12;101638.28;;;2.90;100.00
61119;BME280;51448;51.660;5.824;2022-12-07T08:54:40;101630.56;;;2.95;100.00
61119;BME280;51448;51.660;5.824;2022-12-07T08:57:10;101639.31;;;3.00;100.00
61119;BME280;51448;51.660;5.824;2022-12-07T08:59:38;101640.25;;;3.04;100.00
61119;BME280;51448;51.660;5.824;2022-12-07T09:02:05;101637.66;;;3.05;100.00
61119;BME280;51448;51.660;5.824;2022-12-07T09:04:33;101639.44;;;3.09;100.00
61119;BME280;51448;51.660;5.824;2022-12-07T09:07:01;101642.97;;;3.13;100.00
61119;BME280;51448;51.660;5.824;2022-12-07T09:09:29;101634.34;;;3.15;100.00
61119;BME280;51448;51.660;5.824;2022-12-07T09:11:56;101632.72;;;3.20;100.00
61119;BME280;51448;51.660;5.824;2022-12-07T09:14:23;101634.53;;;3.26;100.00
61119;BME280;51448;51.660;5.824;2022-12-07T09:16:51;101633.72;;;3.32;100.00
61119;BME280;51448;51.660;5.824;2022-12-07T09:19:18;101632.94;;;3.37;100.00
61119;BME280;51448;51.660;5.824;2022-12-07T09:21:46;101633.91;;;3.44;100.00
61119;BME280;51448;51.660;5.824;2022-12-07T09:24:13;101628.81;;;3.52;100.00
61119;BME280;51448;51.660;5.824;2022-12-07T09:26:41;101631.56;;;3.61;100.00
61119;BME280;51448;51.660;5.824;2022-12-07T09:29:08;101635.13;;;3.69;100.00
61119;BME280;51448;51.660;5.824;2022-12-07T09:31:37;101638.69;;;3.79;100.00
61119;BME280;51448;51.660;5.824;2022-12-07T09:34:05;101636.22;;;3.88;100.00
61119;BME280;51448;51.660;5.824;2022-12-07T09:36:33;101641.53;;;3.97;100.00
61119;BME280;51448;51.660;5.824;2022-12-07T09:39:01;101637.28;;;4.06;100.00
61119;BME280;51448;51.660;5.824;2022-12-07T09:41:30;101647.78;;;4.12;100.00
61119;BME280;51448;51.660;5.824;2022-12-07T09:44:05;101646.09;;;4.15;100.00
61119;BME280;51448;51.660;5.824;2022-12-07T09:46:39;101632.22;;;4.18;100.00
61119;BME280;51448;51.660;5.824;2022-12-07T09:49:16;101640.09;;;4.21;100.00
61119;BME280;51448;51.660;5.824;2022-12-07T09:51:46;101635.78;;;4.25;100.00
61119;BME280;51448;51.660;5.824;2022-12-07T09:54:16;101639.31;;;4.30;100.00
61119;BME280;51448;51.660;5.824;2022-12-07T09:56:44;101630.69;;;4.35;100.00
61119;BME280;51448;51.660;5.824;2022-12-07T09:59:18;101628.16;;;4.44;100.00
61119;BME280;51448;51.660;5.824;2022-12-07T10:01:47;101623.03;;;4.52;100.00
61119;BME280;51448;51.660;5.824;2022-12-07T10:04:19;101624.84;;;4.61;100.00
61119;BME280;51448;51.660;5.824;2022-12-07T10:06:49;101617.13;;;4.72;100.00
61119;BME280;51448;51.660;5.824;2022-12-07T10:09:20;101613.72;;;4.80;100.00
61119;BME280;51448;51.660;5.824;2022-12-07T10:12:05;101620.78;;;4.92;100.00
61119;BME280;51448;51.660;5.824;2022-12-07T10:14:39;101618.28;;;5.04;100.00
61119;BME280;51448;51.660;5.824;2022-12-07T10:17:37;101617.47;;;5.18;100.00
61119;BME280;51448;51.660;5.824;2022-12-07T10:23:03;101621.09;;;5.38;100.00
61119;BME280;51448;51.660;5.824;2022-12-07T10:25:35;101612.44;;;5.46;100.00
61119;BME280;51448;51.660;5.824;2022-12-07T10:30:55;101615.09;;;5.56;100.00
61119;BME280;51448;51.660;5.824;2022-12-07T10:33:36;101611.59;;;5.57;100.00
61119;BME280;51448;51.660;5.824;2022-12-07T10:36:20;101592.50;;;5.58;100.00
61119;BME280;51448;51.660;5.824;2022-12-07T10:39:04;101596.00;;;5.62;100.00
61119;BME280;51448;51.660;5.824;2022-12-07T10:42:00;101591.66;;;5.62;100.00
61119;BME280;51448;51.660;5.824;2022-12-07T10:44:32;101594.28;;;5.64;100.00
61119;BME280;51448;51.660;5.824;2022-12-07T10:58:58;101577.78;;;5.73;100.00
61119;BME280;51448;51.660;5.824;2022-12-07T11:01:45;101582.09;;;5.74;100.00
61119;BME280;51448;51.660;5.824;2022-12-07T11:04:24;101576.91;;;5.77;100.00
61119;BME280;51448;51.660;5.824;2022-12-07T11:07:37;101564.72;;;5.82;100.00
61119;BME280;51448;51.660;5.824;2022-12-07T11:13:17;101562.19;;;5.93;100.00
61119;BME280;51448;51.660;5.824;2022-12-07T11:22:13;101552.59;;;5.93;100.00
61119;BME280;51448;51.660;5.824;2022-12-07T11:25:13;101555.22;;;5.96;100.00
61119;BME280;51448;51.660;5.824;2022-12-07T11:28:11;101548.28;;;6.00;100.00
61119;BME280;51448;51.660;5.824;2022-12-07T11:31:23;101551.75;;;6.00;100.00
61119;BME280;51448;51.660;5.824;2022-12-07T11:34:11;101547.44;;;6.04;100.00
61119;BME280;51448;51.660;5.824;2022-12-07T11:36:48;101543.94;;;6.07;100.00
61119;BME280;51448;51.660;5.824;2022-12-07T11:39:36;101531.78;;;6.07;100.00
61119;BME280;51448;51.660;5.824;2022-12-07T11:42:26;101530.03;;;6.09;100.00
61119;BME280;51448;51.660;5.824;2022-12-07T11:45:20;101525.66;;;6.13;100.00
61119;BME280;51448;51.660;5.824;2022-12-07T11:48:00;101528.31;;;6.16;100.00
61119;BME280;51448;51.660;5.824;2022-12-07T11:50:54;101524.81;;;6.20;100.00
61119;BME280;51448;51.660;5.824;2022-12-07T11:53:31;101526.56;;;6.26;100.00
61119;BME280;51448;51.660;5.824;2022-12-07T12:06:40;101518.72;;;6.59;100.00
61119;BME280;51448;51.660;5.824;2022-12-07T12:09:17;101518.72;;;6.61;100.00
61119;BME280;51448;51.660;5.824;2022-12-07T12:19:36;101510.88;;;6.58;100.00
61119;BME280;51448;51.660;5.824;2022-12-07T12:22:12;101517.00;;;6.58;100.00
61119;BME280;51448;51.660;5.824;2022-12-07T12:24:48;101514.38;;;6.57;100.00
61119;BME280;51448;51.660;5.824;2022-12-07T12:27:30;101516.13;;;6.55;100.00
61119;BME280;51448;51.660;5.824;2022-12-07T12:30:03;101508.28;;;6.50;100.00
61119;BME280;51448;51.660;5.824;2022-12-07T12:32:38;101514.38;;;6.48;100.00
61119;BME280;51448;51.660;5.824;2022-12-07T12:35:22;101508.28;;;6.47;100.00
61119;BME280;51448;51.660;5.824;2022-12-07T12:38:26;101497.81;;;6.45;100.00
61119;BME280;51448;51.660;5.824;2022-12-07T12:40:57;101495.22;;;6.42;100.00
61119;BME280;51448;51.660;5.824;2022-12-07T12:43:51;101499.56;;;6.45;100.00
61119;BME280;51448;51.660;5.824;2022-12-07T12:51:50;101485.63;;;6.43;100.00
61119;BME280;51448;51.660;5.824;2022-12-07T12:54:25;101481.28;;;6.42;100.00
61119;BME280;51448;51.660;5.824;2022-12-07T12:57:31;101478.69;;;6.42;100.00
61119;BME280;51448;51.660;5.824;2022-12-07T13:00:14;101469.94;;;6.41;100.00
61119;BME280;51448;51.660;5.824;2022-12-07T13:02:52;101472.56;;;6.38;100.00
61119;BME280;51448;51.660;5.824;2022-12-07T13:05:30;101471.69;;;6.35;100.00
61119;BME280;51448;51.660;5.824;2022-12-07T13:10:48;101471.72;;;6.32;100.00
61119;BME280;51448;51.660;5.824;2022-12-07T13:18:36;101456.03;;;6.36;100.00
61119;BME280;51448;51.660;5.824;2022-12-07T13:29:16;101445.59;;;6.24;100.00
61119;BME280;51448;51.660;5.824;2022-12-07T13:31:51;101446.44;;;6.24;100.00
61119;BME280;51448;51.660;5.824;2022-12-07T13:34:41;101442.09;;;6.28;99.80
61119;BME280;51448;51.660;5.824;2022-12-07T13:37:12;101438.59;;;6.29;100.00
61119;BME280;51448;51.660;5.824;2022-12-07T13:42:30;101426.41;;;6.33;99.50
61119;BME280;51448;51.660;5.824;2022-12-07T13:45:20;101425.53;;;6.35;98.98
61119;BME280;51448;51.660;5.824;2022-12-07T13:48:45;101418.59;;;6.34;99.04
61119;BME280;51448;51.660;5.824;2022-12-07T13:51:28;101419.47;;;6.32;98.96
61119;BME280;51448;51.660;5.824;2022-12-07T13:54:10;101411.63;;;6.30;98.56
61119;BME280;51448;51.660;5.824;2022-12-07T13:56:39;101406.38;;;6.27;98.64
61119;BME280;51448;51.660;5.824;2022-12-07T13:59:17;101410.75;;;6.27;98.38
61119;BME280;51448;51.660;5.824;2022-12-07T14:01:49;101409.88;;;6.28;98.04
61119;BME280;51448;51.660;5.824;2022-12-07T14:04:33;101408.16;;;6.30;97.74
61119;BME280;51448;51.660;5.824;2022-12-07T14:07:18;101412.50;;;6.32;97.77
61119;BME280;51448;51.660;5.824;2022-12-07T14:10:00;101408.13;;;6.34;97.97
61119;BME280;51448;51.660;5.824;2022-12-07T14:12:31;101410.75;;;6.33;97.87
61119;BME280;51448;51.660;5.824;2022-12-07T14:15:03;101409.00;;;6.32;97.57
61119;BME280;51448;51.660;5.824;2022-12-07T14:17:32;101402.91;;;6.31;97.29
61119;BME280;51448;51.660;5.824;2022-12-07T14:20:01;101395.09;;;6.30;96.98
61119;BME280;51448;51.660;5.824;2022-12-07T14:22:34;101401.16;;;6.27;97.35
61119;BME280;51448;51.660;5.824;2022-12-07T14:30:23;101388.13;;;6.15;98.30
61119;BME280;51448;51.660;5.824;2022-12-07T14:33:03;101387.28;;;6.11;98.36
61119;BME280;51448;51.660;5.824;2022-12-07T14:35:32;101388.13;;;6.09;98.48
61119;BME280;51448;51.660;5.824;2022-12-07T14:38:00;101393.38;;;6.07;98.57
61119;BME280;51448;51.660;5.824;2022-12-07T14:40:28;101387.25;;;6.03;98.60
61119;BME280;51448;51.660;5.824;2022-12-07T14:43:02;101392.47;;;6.00;98.73
61119;BME280;51448;51.660;5.824;2022-12-07T14:45:32;101389.88;;;5.96;98.77
61119;BME280;51448;51.660;5.824;2022-12-07T14:48:00;101389.81;;;5.94;98.65
61119;BME280;51448;51.660;5.824;2022-12-07T14:50:52;101383.75;;;5.92;99.58
61119;BME280;51448;51.660;5.824;2022-12-07T14:53:46;101400.28;;;5.90;99.55
61119;BME280;51448;51.660;5.824;2022-12-07T14:56:24;101411.59;;;5.87;99.26
61119;BME280;51448;51.660;5.824;2022-12-07T14:58:52;101385.50;;;5.82;99.32